Disclaimer

Please do not use the information listed here in-flight or in-navigation, as they are not provided to us by the airports but are provided by volunteers, so they might be outdated.

Search


Regions


Airport information page

Radio informations:
Tower (TWR) - 118.8 MHz
Approach (APP) - 122.3 MHz

Airport informations:
Latitude: 41° 19' 38.00" S
Longitude: 174° 48' 19.00" E
Elevation: 41 feet - 12 meters
Operating hours: NO OPERATING HOURS LISTED
Operating agency: Civil government, landing fees and diplomatic clearance may be required
Timezone: UTC+12(+13DT)
Fuel: Jet A1, without icing nhibitor.

100/130 octane gasoline, leaded, MIL-L-5572F (GREEN)

Runway information:
16/34 - 6352 x 148 feet< - >1936 x 45 meters

Recent METARs:
NZWN 141600Z AUTO 04009KT 9999 NCD 15/11 Q1025 NOSIG
NZWN 141630Z AUTO 04009KT 9999 NCD 15/11 Q1025 NOSIG
NZWN 141700Z AUTO 02009KT 9999 NCD 15/12 Q1025 NOSIG

Airport on the map: